createdAt,value
2018-09-13T00:01:24.759Z,8.28
2018-09-13T00:03:52.453Z,8.29
2018-09-13T00:06:20.161Z,8.28
2018-09-13T00:08:47.860Z,8.26
2018-09-13T00:11:15.526Z,8.25
2018-09-13T00:13:43.300Z,8.23
2018-09-13T00:16:11.003Z,8.22
2018-09-13T00:18:38.676Z,8.22
2018-09-13T00:21:06.733Z,8.18
2018-09-13T00:23:34.418Z,8.14
2018-09-13T00:26:02.095Z,8.11
2018-09-13T00:28:29.847Z,8.10
2018-09-13T00:30:57.792Z,8.08
2018-09-13T00:33:25.467Z,8.08
2018-09-13T00:35:53.277Z,8.08
2018-09-13T00:38:20.957Z,8.08
2018-09-13T00:40:48.629Z,8.08
2018-09-13T00:43:16.310Z,8.09
2018-09-13T00:45:44.014Z,8.06
2018-09-13T00:48:11.672Z,8.06
2018-09-13T00:50:39.440Z,8.06
2018-09-13T00:53:07.213Z,8.06
2018-09-13T00:55:34.868Z,8.06
2018-09-13T00:58:02.551Z,8.03
2018-09-13T01:00:30.236Z,8.02
2018-09-13T01:02:57.942Z,8.02
2018-09-13T01:05:25.664Z,8.02
2018-09-13T01:08:10.349Z,8.00
2018-09-13T01:10:38.133Z,7.97
2018-09-13T01:13:05.937Z,7.96
2018-09-13T01:15:33.722Z,7.95
2018-09-13T01:18:01.501Z,7.93
2018-09-13T01:20:29.293Z,7.95
2018-09-13T01:22:57.132Z,7.94
2018-09-13T01:25:24.896Z,7.95
2018-09-13T01:27:52.588Z,7.96
2018-09-13T01:30:20.339Z,7.97
2018-09-13T01:32:48.004Z,8.00
2018-09-13T01:35:15.765Z,8.02
2018-09-13T01:37:43.464Z,8.03
2018-09-13T01:40:11.159Z,8.05
2018-09-13T01:42:38.834Z,8.04
2018-09-13T01:45:06.572Z,8.04
2018-09-13T01:47:34.320Z,8.02
2018-09-13T01:50:01.984Z,8.05
2018-09-13T01:52:29.686Z,8.07
2018-09-13T01:54:57.372Z,8.05
2018-09-13T01:57:25.079Z,8.06
2018-09-13T01:59:52.765Z,8.06
2018-09-13T02:02:20.431Z,8.06
2018-09-13T02:04:48.132Z,8.05
2018-09-13T02:07:15.821Z,8.06
2018-09-13T02:09:43.502Z,8.07
2018-09-13T02:12:11.226Z,8.07
2018-09-13T02:14:38.908Z,8.05
2018-09-13T02:17:06.579Z,8.05
2018-09-13T02:19:34.543Z,8.06
2018-09-13T02:22:02.263Z,8.07
2018-09-13T02:24:29.955Z,8.07
2018-09-13T02:26:57.692Z,8.08
2018-09-13T02:29:25.367Z,8.08
2018-09-13T02:31:53.052Z,8.09
2018-09-13T02:34:20.749Z,8.11
2018-09-13T02:36:48.456Z,8.11
2018-09-13T02:39:16.145Z,8.12
2018-09-13T02:41:43.928Z,8.13
2018-09-13T02:44:11.641Z,8.13
2018-09-13T02:46:39.345Z,8.15
2018-09-13T02:49:07.134Z,8.12
2018-09-13T02:51:34.855Z,8.09
2018-09-13T02:54:02.607Z,8.06
2018-09-13T02:56:30.391Z,8.03
2018-09-13T02:58:58.105Z,8.02
2018-09-13T03:01:25.816Z,7.97
2018-09-13T03:03:53.513Z,7.95
2018-09-13T03:06:21.181Z,7.90
2018-09-13T03:08:48.862Z,7.85
2018-09-13T03:11:16.566Z,7.77
2018-09-13T03:13:44.257Z,7.69
2018-09-13T03:16:11.944Z,7.60
2018-09-13T03:18:39.648Z,7.54
2018-09-13T03:21:07.408Z,7.48
2018-09-13T03:23:35.169Z,7.38
2018-09-13T03:26:02.842Z,7.28
2018-09-13T03:28:30.604Z,7.19
2018-09-13T03:30:58.351Z,7.09
2018-09-13T03:33:26.154Z,7.00
2018-09-13T03:35:53.883Z,6.94
2018-09-13T03:38:21.556Z,6.92
2018-09-13T03:40:49.232Z,6.86
2018-09-13T03:43:17.144Z,6.79
2018-09-13T03:45:44.914Z,6.69
2018-09-13T03:48:12.597Z,6.58
2018-09-13T03:50:40.331Z,6.59
2018-09-13T03:53:08.017Z,6.57
2018-09-13T03:55:35.741Z,6.55
2018-09-13T03:58:03.431Z,6.54
2018-09-13T04:00:31.120Z,6.52
2018-09-13T04:02:58.842Z,6.48
2018-09-13T04:05:26.556Z,6.46
2018-09-13T04:07:54.260Z,6.45
2018-09-13T04:10:22.061Z,6.43
2018-09-13T04:12:49.934Z,6.41
2018-09-13T04:15:18.231Z,6.38
2018-09-13T04:17:45.935Z,6.32
2018-09-13T04:20:13.657Z,6.33
2018-09-13T04:22:41.415Z,6.29
2018-09-13T04:25:09.130Z,6.27
2018-09-13T04:27:36.816Z,6.24
2018-09-13T04:30:04.787Z,6.22
2018-09-13T04:32:32.465Z,6.15
2018-09-13T04:35:00.143Z,6.14
2018-09-13T04:37:27.911Z,6.15
2018-09-13T04:39:56.199Z,6.15
2018-09-13T04:42:23.904Z,6.15
2018-09-13T04:44:51.563Z,6.20
2018-09-13T04:47:19.240Z,6.20
2018-09-13T04:49:46.994Z,6.23
2018-09-13T04:52:14.756Z,6.26
2018-09-13T04:54:42.448Z,6.28
2018-09-13T04:57:10.195Z,6.28
2018-09-13T04:59:37.926Z,6.30
2018-09-13T05:02:05.651Z,6.32
2018-09-13T05:04:33.315Z,6.43
2018-09-13T05:07:01.014Z,6.58
2018-09-13T05:09:28.676Z,6.81
2018-09-13T05:11:56.516Z,7.11
2018-09-13T05:14:24.398Z,7.43
2018-09-13T05:16:52.251Z,7.74
2018-09-13T05:19:20.164Z,8.04
2018-09-13T05:21:48.000Z,8.32
2018-09-13T05:24:15.872Z,8.59
2018-09-13T05:26:43.811Z,8.91
2018-09-13T05:29:11.688Z,9.18
2018-09-13T05:31:39.610Z,9.40
2018-09-13T05:34:07.500Z,9.70
2018-09-13T05:36:35.738Z,9.93
2018-09-13T05:39:05.624Z,10.13
2018-09-13T05:41:33.540Z,10.43
2018-09-13T05:44:01.436Z,10.64
2018-09-13T05:46:29.355Z,10.85
2018-09-13T05:48:57.238Z,10.95
2018-09-13T05:51:25.120Z,11.09
2018-09-13T05:53:53.039Z,11.20
2018-09-13T05:56:20.904Z,11.30
2018-09-13T05:58:48.783Z,11.61
2018-09-13T06:01:16.772Z,11.85
2018-09-13T06:03:44.692Z,11.90
2018-09-13T06:06:12.541Z,12.16
2018-09-13T06:08:40.471Z,12.30
2018-09-13T06:11:08.405Z,12.53
2018-09-13T06:13:36.412Z,12.61
2018-09-13T06:16:04.318Z,12.82
2018-09-13T06:18:32.342Z,12.94
2018-09-13T06:21:00.289Z,12.85
2018-09-13T06:23:28.175Z,13.09
2018-09-13T06:25:56.044Z,13.13
2018-09-13T06:28:23.950Z,13.43
2018-09-13T06:30:52.033Z,13.69
2018-09-13T06:33:19.916Z,13.71
2018-09-13T06:35:47.822Z,13.72
2018-09-13T06:38:15.765Z,13.74
2018-09-13T06:40:43.607Z,13.71
2018-09-13T06:43:11.457Z,13.77
2018-09-13T06:45:39.373Z,14.02
2018-09-13T06:48:07.240Z,14.25
2018-09-13T06:50:35.156Z,14.45
2018-09-13T06:53:03.063Z,14.79
2018-09-13T06:55:30.973Z,14.95
2018-09-13T06:57:58.831Z,15.06
2018-09-13T07:00:26.700Z,15.29
2018-09-13T07:02:54.565Z,15.26
2018-09-13T07:05:22.661Z,15.24
2018-09-13T07:07:50.513Z,15.39
2018-09-13T07:10:18.433Z,15.63
2018-09-13T07:12:46.381Z,15.99
2018-09-13T07:15:14.263Z,16.12
2018-09-13T07:17:42.159Z,16.26
2018-09-13T07:20:10.050Z,16.30
2018-09-13T07:22:37.952Z,16.57
2018-09-13T07:25:05.929Z,16.84
2018-09-13T07:27:33.793Z,17.01
2018-09-13T07:30:01.700Z,16.85
2018-09-13T07:32:29.589Z,16.79
2018-09-13T07:34:57.509Z,17.02
2018-09-13T07:37:25.400Z,17.10
2018-09-13T07:39:53.336Z,17.11
2018-09-13T07:42:21.297Z,17.11
2018-09-13T07:44:49.312Z,17.21
2018-09-13T07:47:17.229Z,17.58
2018-09-13T07:49:45.245Z,17.82
2018-09-13T07:52:13.069Z,17.70
2018-09-13T07:54:41.008Z,17.55
2018-09-13T07:57:08.922Z,17.51
2018-09-13T07:59:36.833Z,17.75
2018-09-13T08:02:04.762Z,18.00
2018-09-13T08:04:32.729Z,18.14
2018-09-13T08:07:00.668Z,18.01
2018-09-13T08:09:28.556Z,18.21
2018-09-13T08:11:56.566Z,18.30
2018-09-13T08:14:24.462Z,18.59
2018-09-13T08:16:52.480Z,18.72
2018-09-13T08:19:20.377Z,18.94
2018-09-13T08:21:48.515Z,19.06
2018-09-13T08:24:16.331Z,19.07
2018-09-13T08:26:44.245Z,19.15
2018-09-13T08:29:12.239Z,19.15
2018-09-13T08:31:40.176Z,19.19
2018-09-13T08:34:08.091Z,19.13
2018-09-13T08:36:36.036Z,19.23
2018-09-13T08:39:05.992Z,19.36
2018-09-13T08:41:33.878Z,19.32
2018-09-13T08:44:01.799Z,19.46
2018-09-13T08:46:29.684Z,19.57
2018-09-13T08:48:57.614Z,19.77
2018-09-13T08:51:25.519Z,19.75
2018-09-13T08:53:53.499Z,19.95
2018-09-13T08:56:21.421Z,20.05
2018-09-13T08:58:49.527Z,20.21
2018-09-13T09:01:17.506Z,20.20
2018-09-13T09:03:45.445Z,20.24
2018-09-13T09:06:13.398Z,20.13
2018-09-13T09:08:41.347Z,20.38
2018-09-13T09:11:09.292Z,20.24
2018-09-13T09:13:37.321Z,20.20
2018-09-13T09:16:05.220Z,20.31
2018-09-13T09:18:33.196Z,20.41
2018-09-13T09:21:01.187Z,20.34
2018-09-13T09:23:29.112Z,20.57
2018-09-13T09:25:57.053Z,20.54
2018-09-13T09:28:25.052Z,20.52
2018-09-13T09:30:53.012Z,20.54
2018-09-13T09:33:20.948Z,20.41
2018-09-13T09:35:48.853Z,20.45
2018-09-13T09:38:16.792Z,20.56
2018-09-13T09:40:44.795Z,20.31
2018-09-13T09:43:12.716Z,20.49
2018-09-13T09:45:40.624Z,20.56
2018-09-13T09:48:08.744Z,20.50
2018-09-13T09:50:36.646Z,20.39
2018-09-13T09:53:04.597Z,20.45
2018-09-13T09:55:32.501Z,20.59
2018-09-13T09:58:00.539Z,20.70
2018-09-13T10:00:33.970Z,21.06
2018-09-13T10:03:01.914Z,20.88
2018-09-13T10:05:29.806Z,20.83
2018-09-13T10:07:57.705Z,20.43
2018-09-13T10:10:25.581Z,20.50
2018-09-13T10:12:53.550Z,20.68
2018-09-13T10:15:26.965Z,20.90
2018-09-13T10:19:03.273Z,20.90
2018-09-13T10:21:36.504Z,20.97
2018-09-13T10:24:09.853Z,21.06
2018-09-13T10:26:43.073Z,21.07
2018-09-13T10:29:16.533Z,20.93
2018-09-13T10:31:49.808Z,21.09
2018-09-13T10:34:23.270Z,21.25
2018-09-13T10:36:56.592Z,21.28
2018-09-13T10:39:29.999Z,21.32
2018-09-13T10:42:03.329Z,21.12
2018-09-13T10:44:36.947Z,21.23
2018-09-13T10:47:10.357Z,21.32
2018-09-13T10:49:43.895Z,21.36
2018-09-13T10:52:16.212Z,21.34
2018-09-13T10:54:44.216Z,21.54
2018-09-13T10:57:47.205Z,21.50
2018-09-13T11:00:15.309Z,21.51
2018-09-13T11:02:43.228Z,20.97
2018-09-13T11:05:11.135Z,20.55
2018-09-13T11:07:39.076Z,20.13
2018-09-13T11:10:07.116Z,19.69
2018-09-13T11:12:41.204Z,19.58
2018-09-13T11:15:20.433Z,19.68
2018-09-13T11:17:48.352Z,19.37
2018-09-13T11:20:16.328Z,19.41
2018-09-13T11:22:44.436Z,19.57
2018-09-13T11:25:12.316Z,19.42
2018-09-13T11:27:40.227Z,19.09
2018-09-13T11:30:08.247Z,18.94
2018-09-13T11:32:36.204Z,19.11
2018-09-13T11:35:04.136Z,19.45
2018-09-13T11:37:32.145Z,19.79
2018-09-13T11:40:00.140Z,20.17
2018-09-13T11:42:27.959Z,20.20
2018-09-13T11:44:55.900Z,20.39
2018-09-13T11:47:23.800Z,20.06
2018-09-13T11:49:51.724Z,20.03
2018-09-13T11:52:19.613Z,20.23
2018-09-13T11:54:47.547Z,19.91
2018-09-13T11:57:15.425Z,19.47
2018-09-13T11:59:43.372Z,19.20
2018-09-13T12:02:11.369Z,19.10
2018-09-13T12:04:39.304Z,18.96
2018-09-13T12:07:07.296Z,18.86
2018-09-13T12:09:35.181Z,19.29
2018-09-13T12:12:03.076Z,19.60
2018-09-13T12:14:31.186Z,19.33
2018-09-13T12:16:59.083Z,19.07
2018-09-13T12:19:27.043Z,18.95
2018-09-13T12:21:54.961Z,18.84
2018-09-13T12:24:22.891Z,18.64
2018-09-13T12:26:50.764Z,18.54
2018-09-13T12:29:18.723Z,18.76
2018-09-13T12:31:46.611Z,18.90
2018-09-13T12:34:14.547Z,19.16
2018-09-13T12:36:42.456Z,19.18
2018-09-13T12:39:11.740Z,19.30
2018-09-13T12:41:40.028Z,19.37
2018-09-13T12:44:08.436Z,19.32
2018-09-13T12:46:36.389Z,19.30
2018-09-13T12:49:04.432Z,19.23
2018-09-13T12:51:32.415Z,19.05
2018-09-13T12:54:00.743Z,19.06
2018-09-13T12:56:28.689Z,18.99
2018-09-13T12:58:56.632Z,19.03
2018-09-13T13:01:24.551Z,18.90
2018-09-13T13:03:52.432Z,18.99
2018-09-13T13:06:20.316Z,18.86
2018-09-13T13:08:48.375Z,18.39
2018-09-13T13:11:16.216Z,18.26
2018-09-13T13:13:44.097Z,18.25
2018-09-13T13:16:11.985Z,18.35
2018-09-13T13:18:39.947Z,18.37
2018-09-13T13:21:07.820Z,18.10
2018-09-13T13:23:35.704Z,17.70
2018-09-13T13:26:03.632Z,17.58
2018-09-13T13:28:31.517Z,17.24
2018-09-13T13:30:59.411Z,17.02
2018-09-13T13:33:27.340Z,16.86
2018-09-13T13:35:55.256Z,16.80
2018-09-13T13:38:23.134Z,16.71
2018-09-13T13:40:51.050Z,16.63
2018-09-13T13:43:18.936Z,16.49
2018-09-13T13:45:46.869Z,16.32
2018-09-13T13:48:14.917Z,16.27
2018-09-13T13:50:42.796Z,16.30
2018-09-13T13:53:10.707Z,16.25
2018-09-13T13:55:38.633Z,16.16
2018-09-13T13:58:06.538Z,16.12
2018-09-13T14:00:34.491Z,16.02
2018-09-13T14:03:02.391Z,15.88
2018-09-13T14:05:30.302Z,15.83
2018-09-13T14:07:58.238Z,15.69
2018-09-13T14:10:26.107Z,15.66
2018-09-13T14:12:53.991Z,15.57
2018-09-13T14:15:21.975Z,15.49
2018-09-13T14:17:49.874Z,15.40
2018-09-13T14:20:17.895Z,15.36
2018-09-13T14:22:45.864Z,15.24
2018-09-13T14:25:13.862Z,15.17
2018-09-13T14:27:41.875Z,15.04
2018-09-13T14:30:09.792Z,14.90
2018-09-13T14:32:37.703Z,14.82
2018-09-13T14:35:05.683Z,14.83
2018-09-13T14:37:33.570Z,14.76
2018-09-13T14:40:01.609Z,14.72
2018-09-13T14:42:29.458Z,14.55
2018-09-13T14:44:57.363Z,14.46
2018-09-13T14:47:25.309Z,14.38
2018-09-13T14:49:53.168Z,14.31
2018-09-13T14:52:21.136Z,14.26
2018-09-13T14:54:49.102Z,14.18
2018-09-13T14:57:17.427Z,14.16
2018-09-13T14:59:45.284Z,14.11
2018-09-13T15:02:13.177Z,14.10
2018-09-13T15:04:41.372Z,14.11
2018-09-13T15:07:09.308Z,14.05
2018-09-13T15:09:37.206Z,14.07
2018-09-13T15:12:05.129Z,14.02
2018-09-13T15:14:33.056Z,13.98
2018-09-13T15:17:00.923Z,13.92
2018-09-13T15:19:28.933Z,13.88
2018-09-13T15:21:56.788Z,13.77
2018-09-13T15:24:24.786Z,13.69
2018-09-13T15:26:52.605Z,13.65
2018-09-13T15:29:20.467Z,13.55
2018-09-13T15:31:48.353Z,13.41
2018-09-13T15:34:16.224Z,13.29
2018-09-13T15:36:44.254Z,13.18
2018-09-13T15:39:13.063Z,13.10
2018-09-13T15:41:41.024Z,13.09
2018-09-13T15:44:09.045Z,13.14
2018-09-13T15:46:36.916Z,13.25
2018-09-13T15:49:05.099Z,13.25
2018-09-13T15:51:32.988Z,13.19
2018-09-13T15:54:00.865Z,13.12
2018-09-13T15:56:28.776Z,13.03
2018-09-13T15:58:56.780Z,12.95
2018-09-13T16:01:24.691Z,12.89
2018-09-13T16:03:52.675Z,12.78
2018-09-13T16:06:20.527Z,12.69
2018-09-13T16:08:48.377Z,12.65
2018-09-13T16:11:16.283Z,12.57
2018-09-13T16:13:44.159Z,12.46
2018-09-13T16:16:12.084Z,12.37
2018-09-13T16:18:39.951Z,12.28
2018-09-13T16:21:08.189Z,12.22
2018-09-13T16:23:36.104Z,12.13
2018-09-13T16:26:04.312Z,12.02
2018-09-13T16:28:32.228Z,11.93
2018-09-13T16:31:00.138Z,11.83
2018-09-13T16:33:28.073Z,11.74
2018-09-13T16:35:58.984Z,11.63
2018-09-13T16:38:32.297Z,11.54
2018-09-13T16:41:07.398Z,11.48
2018-09-13T16:43:40.760Z,11.38
2018-09-13T16:46:09.408Z,11.28
2018-09-13T16:48:43.192Z,11.18
2018-09-13T16:51:11.477Z,11.08
2018-09-13T16:53:39.532Z,10.97
2018-09-13T16:56:07.997Z,10.85
2018-09-13T16:58:35.981Z,10.80
2018-09-13T17:01:03.993Z,10.75
2018-09-13T17:03:31.863Z,10.72
2018-09-13T17:05:59.762Z,10.70
2018-09-13T17:08:27.668Z,10.69
2018-09-13T17:10:55.567Z,10.69
2018-09-13T17:13:23.427Z,10.69
2018-09-13T17:15:51.298Z,10.67
2018-09-13T17:18:19.172Z,10.62
2018-09-13T17:20:46.995Z,10.57
2018-09-13T17:23:15.000Z,10.49
2018-09-13T17:25:42.916Z,10.37
2018-09-13T17:28:10.770Z,10.29
2018-09-13T17:30:38.468Z,10.22
2018-09-13T17:33:06.152Z,10.14
2018-09-13T17:35:33.841Z,10.08
2018-09-13T17:38:01.613Z,10.00
2018-09-13T17:40:29.344Z,9.95
2018-09-13T17:42:57.035Z,9.88
2018-09-13T17:45:24.842Z,9.84
2018-09-13T17:47:52.584Z,9.78
2018-09-13T17:50:20.424Z,9.73
2018-09-13T17:52:48.221Z,9.69
2018-09-13T17:55:16.044Z,9.66
2018-09-13T17:57:43.712Z,9.63
2018-09-13T18:00:12.953Z,9.59
2018-09-13T18:02:40.716Z,9.62
2018-09-13T18:05:08.835Z,9.62
2018-09-13T18:07:36.594Z,9.62
2018-09-13T18:10:04.793Z,9.62
2018-09-13T18:12:32.552Z,9.59
2018-09-13T18:15:00.322Z,9.57
2018-09-13T18:17:28.263Z,9.59
2018-09-13T18:19:56.024Z,9.58
2018-09-13T18:22:23.703Z,9.61
2018-09-13T18:24:51.440Z,9.64
2018-09-13T18:27:19.265Z,9.65
2018-09-13T18:29:46.979Z,9.65
2018-09-13T18:32:14.672Z,9.59
2018-09-13T18:34:42.967Z,9.54
2018-09-13T18:37:10.742Z,9.47
2018-09-13T18:39:39.440Z,9.43
2018-09-13T18:42:07.187Z,9.37
2018-09-13T18:44:34.897Z,9.30
2018-09-13T18:47:02.613Z,9.27
2018-09-13T18:49:30.445Z,9.21
2018-09-13T18:51:58.220Z,9.14
2018-09-13T18:54:25.960Z,9.08
2018-09-13T18:56:53.750Z,9.00
2018-09-13T18:59:21.507Z,8.93
2018-09-13T19:01:49.187Z,8.89
2018-09-13T19:04:16.903Z,8.86
2018-09-13T19:06:44.731Z,8.80
2018-09-13T19:09:12.413Z,8.73
2018-09-13T19:11:40.140Z,8.65
2018-09-13T19:14:07.850Z,8.57
2018-09-13T19:16:35.564Z,8.48
2018-09-13T19:19:03.351Z,8.43
2018-09-13T19:21:31.240Z,8.35
2018-09-13T19:23:58.953Z,8.21
2018-09-13T19:26:26.657Z,8.17
2018-09-13T19:28:54.392Z,8.11
2018-09-13T19:31:22.091Z,8.02
2018-09-13T19:33:49.804Z,7.95
2018-09-13T19:36:17.524Z,7.88
2018-09-13T19:38:45.337Z,7.81
2018-09-13T19:41:13.552Z,7.75
2018-09-13T19:43:41.305Z,7.72
2018-09-13T19:46:09.040Z,7.67
2018-09-13T19:48:36.722Z,7.60
2018-09-13T19:51:04.629Z,7.55
2018-09-13T19:53:32.254Z,7.48
2018-09-13T19:55:59.957Z,7.41
2018-09-13T19:58:27.628Z,7.33
2018-09-13T20:00:55.351Z,7.28
2018-09-13T20:03:23.101Z,7.21
2018-09-13T20:05:50.803Z,7.14
2018-09-13T20:08:18.588Z,7.05
2018-09-13T20:10:46.327Z,6.98
2018-09-13T20:13:13.987Z,6.92
2018-09-13T20:15:41.669Z,6.86
2018-09-13T20:18:09.565Z,6.78
2018-09-13T20:20:37.203Z,6.70
2018-09-13T20:23:04.916Z,6.67
2018-09-13T20:25:32.732Z,6.58
2018-09-13T20:28:00.425Z,6.50
2018-09-13T20:30:28.129Z,6.43
2018-09-13T20:32:55.943Z,6.36
2018-09-13T20:35:23.599Z,6.33
2018-09-13T20:37:51.365Z,6.30
2018-09-13T20:40:19.188Z,6.21
2018-09-13T20:42:46.892Z,6.12
2018-09-13T20:45:14.568Z,6.05
2018-09-13T20:47:42.251Z,5.99
2018-09-13T20:50:09.920Z,5.94
2018-09-13T20:52:37.609Z,5.86
2018-09-13T20:55:05.340Z,5.79
2018-09-13T20:57:33.048Z,5.72
2018-09-13T21:00:00.848Z,5.61
2018-09-13T21:02:28.580Z,5.51
2018-09-13T21:04:56.276Z,5.40
2018-09-13T21:07:24.004Z,5.34
2018-09-13T21:09:51.784Z,5.23
2018-09-13T21:12:19.483Z,5.17
2018-09-13T21:14:47.185Z,5.14
2018-09-13T21:17:15.031Z,5.09
2018-09-13T21:19:42.612Z,5.03
2018-09-13T21:22:10.885Z,4.97
2018-09-13T21:24:38.656Z,4.92
2018-09-13T21:27:06.399Z,4.88
2018-09-13T21:29:34.137Z,4.76
2018-09-13T21:32:01.937Z,4.64
2018-09-13T21:34:29.616Z,4.57
2018-09-13T21:36:58.012Z,4.53
2018-09-13T21:39:25.697Z,4.51
2018-09-13T21:41:53.384Z,4.44
2018-09-13T21:44:21.993Z,4.40
2018-09-13T21:46:49.664Z,4.36
2018-09-13T21:49:17.361Z,4.28
2018-09-13T21:51:45.167Z,4.19
2018-09-13T21:54:12.916Z,4.10
2018-09-13T21:56:40.652Z,3.99
2018-09-13T21:59:08.336Z,3.89
2018-09-13T22:01:36.028Z,3.82
2018-09-13T22:04:03.814Z,3.79
2018-09-13T22:06:31.549Z,3.75
2018-09-13T22:08:59.279Z,3.65
2018-09-13T22:11:27.129Z,3.53
2018-09-13T22:13:54.833Z,3.44
2018-09-13T22:16:22.516Z,3.41
2018-09-13T22:18:50.245Z,3.34
2018-09-13T22:21:18.026Z,3.27
2018-09-13T22:23:45.679Z,3.24
2018-09-13T22:26:13.399Z,3.14
2018-09-13T22:28:41.070Z,3.10
2018-09-13T22:31:08.795Z,3.06
2018-09-13T22:33:36.487Z,3.02
2018-09-13T22:36:04.185Z,3.02
2018-09-13T22:38:31.868Z,2.98
2018-09-13T22:40:59.546Z,2.96
2018-09-13T22:43:31.717Z,2.91
2018-09-13T22:45:59.416Z,2.89
2018-09-13T22:48:27.067Z,2.84
2018-09-13T22:50:54.778Z,2.77
2018-09-13T22:53:22.545Z,2.69
2018-09-13T22:55:50.219Z,2.63
2018-09-13T22:58:17.928Z,2.63
2018-09-13T23:00:45.675Z,2.61
2018-09-13T23:03:13.388Z,2.52
2018-09-13T23:05:41.077Z,2.46
2018-09-13T23:08:08.770Z,2.46
2018-09-13T23:10:36.581Z,2.46
2018-09-13T23:13:04.258Z,2.45
2018-09-13T23:15:32.092Z,2.41
2018-09-13T23:17:59.796Z,2.39
2018-09-13T23:20:27.484Z,2.37
2018-09-13T23:22:55.251Z,2.34
2018-09-13T23:25:22.909Z,2.26
2018-09-13T23:27:50.612Z,2.24
2018-09-13T23:30:18.292Z,2.24
2018-09-13T23:32:45.983Z,2.23
2018-09-13T23:35:13.708Z,2.15
2018-09-13T23:37:41.423Z,2.08
2018-09-13T23:40:09.280Z,2.06
2018-09-13T23:42:36.953Z,2.06
2018-09-13T23:45:05.185Z,2.09
2018-09-13T23:47:32.899Z,2.07
2018-09-13T23:50:00.577Z,2.05
2018-09-13T23:52:28.279Z,2.02
2018-09-13T23:54:56.140Z,2.03
2018-09-13T23:57:23.828Z,2.04
2018-09-13T23:59:51.519Z,2.05
